Time;durP1;ratioP1;P1;durP2;ratioP2;P2;SDS_P1;SDS_P2;PMS_P1;PMS_P2;Temp;Humidity;BMP_temperature;BMP_pressure;BME280_temperature;BME280_humidity;BME280_pressure;Samples;Min_cycle;Max_cycle;Signal;HPM_P1;HPM_P2
2020/12/26 00:00:51;;;;;;;;;;;21.70;54.60;;;;;;5022118;28;1237;-64
2020/12/26 00:03:16;;;;;;;;;;;21.70;54.60;;;;;;5031511;28;1402;-64
2020/12/26 00:05:42;;;;;;;;;;;21.70;54.60;;;;;;5031774;28;1425;-64
2020/12/26 00:08:07;;;;;;;;;;;21.70;54.60;;;;;;5031647;28;1906;-66
2020/12/26 00:10:33;;;;;;;;;;;21.70;54.60;;;;;;5031887;28;1305;-65
2020/12/26 00:12:58;;;;;;;;;;;21.70;54.70;;;;;;5028826;28;1313;-65
2020/12/26 00:15:24;;;;;;;;;;;21.60;54.70;;;;;;5021546;28;1317;-64
2020/12/26 00:17:49;;;;;;;;;;;21.60;54.70;;;;;;5031773;28;1342;-64
2020/12/26 00:20:17;;;;;;;;;;;21.60;54.70;;;;;;5031472;28;1237;-63
2020/12/26 00:22:42;;;;;;;;;;;21.60;54.70;;;;;;5031628;28;1353;-64
2020/12/26 00:25:08;;;;;;;;;;;21.60;54.80;;;;;;5031842;28;1236;-63
2020/12/26 00:27:36;;;;;;;;;;;21.60;54.80;;;;;;5031542;28;1914;-63
2020/12/26 00:30:01;;;;;;;;;;;21.60;54.80;;;;;;5032178;28;1268;-65
2020/12/26 00:32:27;;;;;;;;;;;21.60;54.80;;;;;;5031424;28;1303;-64
2020/12/26 00:34:52;;;;;;;;;;;21.60;54.90;;;;;;5031157;28;1275;-65
2020/12/26 00:37:18;;;;;;;;;;;21.50;54.80;;;;;;5015401;28;1307;-65
2020/12/26 00:39:43;;;;;;;;;;;21.50;55.50;;;;;;5011960;28;1257;-65
2020/12/26 00:42:09;;;;;;;;;;;21.50;54.90;;;;;;5028100;28;1282;-63
2020/12/26 00:44:35;;;;;;;;;;;21.50;54.90;;;;;;5035475;28;1355;-64
2020/12/26 00:47:00;;;;;;;;;;;21.50;54.90;;;;;;5035439;28;1248;-63
2020/12/26 00:49:26;;;;;;;;;;;21.50;54.90;;;;;;5017230;28;1987;-65
2020/12/26 00:51:51;;;;;;;;;;;21.50;54.90;;;;;;5035420;28;1399;-63
2020/12/26 00:54:20;;;;;;;;;;;21.50;54.90;;;;;;5035142;28;1276;-64
2020/12/26 00:56:45;;;;;;;;;;;21.40;54.90;;;;;;5035193;28;1064;-64
2020/12/26 00:59:11;;;;;;;;;;;21.40;54.90;;;;;;5025859;28;1284;-66
2020/12/26 01:01:36;;;;;;;;;;;21.50;55.00;;;;;;5031931;28;1302;-64
2020/12/26 01:04:02;;;;;;;;;;;21.40;55.00;;;;;;5034759;28;1240;-65
2020/12/26 01:06:27;;;;;;;;;;;21.40;55.00;;;;;;5035029;28;1354;-63
2020/12/26 01:08:53;;;;;;;;;;;21.40;55.10;;;;;;5035157;28;1981;-63
2020/12/26 01:11:18;;;;;;;;;;;21.40;55.10;;;;;;5034944;28;1357;-67
2020/12/26 01:13:44;;;;;;;;;;;21.40;55.10;;;;;;5025934;28;1298;-63
2020/12/26 01:16:12;;;;;;;;;;;21.40;55.10;;;;;;5030680;28;1303;-64
2020/12/26 01:18:38;;;;;;;;;;;21.40;55.10;;;;;;5034738;28;1290;-64
2020/12/26 01:21:04;;;;;;;;;;;21.40;55.10;;;;;;5034810;28;1300;-63
2020/12/26 01:23:33;;;;;;;;;;;21.40;55.20;;;;;;5034084;28;1271;-64
2020/12/26 01:25:59;;;;;;;;;;;21.40;55.20;;;;;;5017008;28;1162;-66
2020/12/26 01:28:24;;;;;;;;;;;21.40;55.20;;;;;;5016913;28;1901;-64
2020/12/26 01:30:50;;;;;;;;;;;21.40;55.20;;;;;;5034669;28;1069;-65
2020/12/26 01:33:15;;;;;;;;;;;21.40;55.20;;;;;;5034485;28;1383;-65
2020/12/26 01:35:41;;;;;;;;;;;21.30;55.20;;;;;;5031115;28;1200;-67
2020/12/26 01:38:06;;;;;;;;;;;21.30;55.20;;;;;;5024477;28;1318;-64
2020/12/26 01:40:31;;;;;;;;;;;21.30;55.20;;;;;;5034753;28;1300;-64
2020/12/26 01:42:57;;;;;;;;;;;21.30;55.20;;;;;;5034543;28;1330;-65
2020/12/26 01:45:23;;;;;;;;;;;21.30;55.30;;;;;;5034160;28;1241;-67
2020/12/26 01:47:49;;;;;;;;;;;21.30;55.30;;;;;;5034138;28;1979;-67
2020/12/26 01:50:14;;;;;;;;;;;21.30;55.30;;;;;;5016483;28;1245;-63
2020/12/26 01:52:40;;;;;;;;;;;21.30;55.30;;;;;;5016612;28;1296;-64
2020/12/26 01:55:05;;;;;;;;;;;21.30;55.30;;;;;;5015952;28;1290;-65
2020/12/26 01:57:34;;;;;;;;;;;21.30;55.30;;;;;;5034159;28;1327;-63
2020/12/26 02:00:00;;;;;;;;;;;21.30;55.30;;;;;;5018046;28;1252;-64
2020/12/26 02:02:26;;;;;;;;;;;21.20;55.30;;;;;;5023809;28;1308;-65
2020/12/26 02:04:51;;;;;;;;;;;21.30;55.40;;;;;;5032857;28;1153;-66
2020/12/26 02:07:16;;;;;;;;;;;21.30;55.40;;;;;;5032083;28;1914;-63
2020/12/26 02:09:42;;;;;;;;;;;21.30;55.40;;;;;;5030557;28;1145;-63
2020/12/26 02:12:07;;;;;;;;;;;21.20;55.30;;;;;;5023901;28;1275;-64
2020/12/26 02:14:33;;;;;;;;;;;21.20;55.40;;;;;;5017494;28;1064;-64
2020/12/26 02:16:58;;;;;;;;;;;21.20;55.50;;;;;;5023434;28;1335;-63
2020/12/26 02:19:24;;;;;;;;;;;21.20;55.40;;;;;;5033694;28;1248;-64
2020/12/26 02:21:50;;;;;;;;;;;21.20;55.40;;;;;;5015912;28;1271;-65
2020/12/26 02:24:15;;;;;;;;;;;21.20;55.40;;;;;;5033706;28;1247;-64
2020/12/26 02:26:41;;;;;;;;;;;21.20;55.40;;;;;;5016130;28;1284;-63
2020/12/26 02:29:06;;;;;;;;;;;21.30;55.40;;;;;;5033409;28;1906;-64
2020/12/26 02:31:32;;;;;;;;;;;21.30;55.30;;;;;;5033722;28;1276;-65
2020/12/26 02:33:57;;;;;;;;;;;21.30;55.30;;;;;;5015387;28;1419;-66
2020/12/26 02:36:23;;;;;;;;;;;21.30;55.30;;;;;;5006382;28;1347;-63
2020/12/26 02:38:48;;;;;;;;;;;21.30;55.30;;;;;;5029826;28;1292;-64
2020/12/26 02:41:14;;;;;;;;;;;21.30;55.20;;;;;;5033504;28;1299;-64
2020/12/26 02:43:39;;;;;;;;;;;21.30;55.20;;;;;;5015321;28;1319;-64
2020/12/26 02:46:05;;;;;;;;;;;21.30;55.20;;;;;;5033445;28;1326;-63
2020/12/26 02:48:30;;;;;;;;;;;21.30;55.20;;;;;;5033117;28;1949;-63
2020/12/26 02:50:56;;;;;;;;;;;21.30;55.20;;;;;;5015296;28;1609;-65
2020/12/26 02:53:22;;;;;;;;;;;21.30;55.20;;;;;;5033102;28;1357;-63
2020/12/26 02:55:48;;;;;;;;;;;21.20;55.20;;;;;;5033448;28;1438;-65
2020/12/26 02:58:13;;;;;;;;;;;21.30;55.20;;;;;;5031143;28;1241;-63
2020/12/26 03:00:39;;;;;;;;;;;21.30;55.20;;;;;;5021347;28;1319;-64
2020/12/26 03:03:04;;;;;;;;;;;21.20;55.20;;;;;;5032819;28;1393;-65
2020/12/26 03:05:30;;;;;;;;;;;21.20;55.20;;;;;;5032145;28;1333;-64
2020/12/26 03:07:55;;;;;;;;;;;21.20;55.20;;;;;;5032589;28;1902;-63
2020/12/26 03:10:21;;;;;;;;;;;21.20;55.20;;;;;;5033194;28;1283;-64
2020/12/26 03:12:46;;;;;;;;;;;21.20;55.30;;;;;;5013485;28;1274;-64
2020/12/26 03:15:11;;;;;;;;;;;21.20;55.30;;;;;;5013070;28;1257;-64
2020/12/26 03:17:37;;;;;;;;;;;21.20;55.30;;;;;;5027190;28;1121;-64
2020/12/26 03:20:03;;;;;;;;;;;21.20;55.30;;;;;;5032858;28;1243;-67
2020/12/26 03:22:28;;;;;;;;;;;21.20;55.30;;;;;;5032479;28;1274;-67
2020/12/26 03:24:54;;;;;;;;;;;21.20;55.40;;;;;;5014845;28;1265;-63
2020/12/26 03:27:19;;;;;;;;;;;21.20;55.40;;;;;;5032265;28;1906;-64
2020/12/26 03:29:45;;;;;;;;;;;21.20;55.40;;;;;;4994970;28;1694;-64
2020/12/26 03:32:10;;;;;;;;;;;21.20;55.40;;;;;;5024206;28;1279;-64
2020/12/26 03:34:36;;;;;;;;;;;21.20;55.50;;;;;;5029285;28;1232;-64
2020/12/26 03:37:02;;;;;;;;;;;21.20;55.50;;;;;;5021297;28;1265;-65
2020/12/26 03:39:27;;;;;;;;;;;21.10;55.40;;;;;;5032598;28;1228;-64
2020/12/26 03:41:52;;;;;;;;;;;21.10;55.50;;;;;;5031111;28;1369;-63
2020/12/26 03:44:18;;;;;;;;;;;21.10;55.50;;;;;;5030333;28;1153;-64
2020/12/26 03:46:43;;;;;;;;;;;21.10;55.50;;;;;;5028727;28;1345;-63
2020/12/26 03:49:09;;;;;;;;;;;21.10;55.50;;;;;;5016598;28;1966;-65
2020/12/26 03:51:34;;;;;;;;;;;21.10;55.50;;;;;;5031304;28;1795;-63
2020/12/26 03:54:00;;;;;;;;;;;21.10;55.50;;;;;;5031469;28;1173;-64
2020/12/26 03:56:25;;;;;;;;;;;21.10;55.50;;;;;;5030193;28;1247;-65
2020/12/26 03:58:51;;;;;;;;;;;21.10;55.60;;;;;;5031272;28;1245;-63
2020/12/26 04:01:16;;;;;;;;;;;21.10;55.60;;;;;;5028556;28;1235;-64
2020/12/26 04:03:42;;;;;;;;;;;21.10;55.60;;;;;;5031701;28;1419;-65
2020/12/26 04:06:07;;;;;;;;;;;21.10;55.60;;;;;;5021146;28;1267;-67
2020/12/26 04:08:32;;;;;;;;;;;21.10;55.60;;;;;;5031159;28;2237;-64
2020/12/26 04:10:58;;;;;;;;;;;21.10;55.60;;;;;;5032475;28;1486;-64
2020/12/26 04:13:23;;;;;;;;;;;21.10;55.60;;;;;;5031166;28;1282;-66
2020/12/26 04:15:49;;;;;;;;;;;21.10;55.60;;;;;;5032093;28;1239;-64
2020/12/26 04:18:14;;;;;;;;;;;21.10;55.50;;;;;;5031466;28;1364;-64
2020/12/26 04:20:40;;;;;;;;;;;21.20;55.50;;;;;;5032419;28;1358;-66
2020/12/26 04:23:05;;;;;;;;;;;21.20;55.30;;;;;;5049148;28;1845;-63
2020/12/26 04:25:31;;;;;;;;;;;21.30;55.20;;;;;;5055255;28;1212;-64
2020/12/26 04:27:56;;;;;;;;;;;21.40;55.10;;;;;;5033039;28;1968;-63
2020/12/26 04:30:22;;;;;;;;;;;21.50;54.90;;;;;;5015423;28;1377;-63
2020/12/26 04:32:48;;;;;;;;;;;21.60;54.80;;;;;;5015003;28;1296;-66
2020/12/26 04:35:13;;;;;;;;;;;21.60;54.50;;;;;;5032623;28;1320;-64
2020/12/26 04:37:39;;;;;;;;;;;21.70;54.40;;;;;;5032539;28;1410;-65
2020/12/26 04:40:04;;;;;;;;;;;21.80;54.20;;;;;;5032634;28;1365;-65
2020/12/26 04:42:30;;;;;;;;;;;21.80;54.00;;;;;;5032650;28;1432;-65
2020/12/26 04:44:55;;;;;;;;;;;21.90;53.90;;;;;;5014682;28;1348;-63
2020/12/26 04:47:29;;;;;;;;;;;22.00;53.80;;;;;;5014586;28;1898;-64
2020/12/26 04:49:57;;;;;;;;;;;22.00;53.60;;;;;;5015138;28;1359;-66
2020/12/26 04:52:23;;;;;;;;;;;22.10;53.60;;;;;;5039386;28;1292;-63
2020/12/26 04:54:48;;;;;;;;;;;22.10;53.50;;;;;;5034441;28;1303;-65
2020/12/26 04:57:13;;;;;;;;;;;22.10;53.40;;;;;;5018809;28;1293;-64
2020/12/26 04:59:39;;;;;;;;;;;22.20;53.30;;;;;;5027181;28;1465;-64
2020/12/26 05:02:05;;;;;;;;;;;22.20;53.20;;;;;;5032433;28;1412;-63
2020/12/26 05:04:30;;;;;;;;;;;22.20;53.20;;;;;;5014585;28;1343;-67
2020/12/26 05:06:55;;;;;;;;;;;22.30;53.10;;;;;;5032198;28;1076;-63
2020/12/26 05:09:21;;;;;;;;;;;22.30;53.10;;;;;;5032629;28;1927;-64
2020/12/26 05:11:50;;;;;;;;;;;22.30;53.00;;;;;;5032025;28;1353;-63
2020/12/26 05:14:16;;;;;;;;;;;22.30;53.00;;;;;;5035241;28;1234;-63
2020/12/26 05:16:42;;;;;;;;;;;22.30;52.90;;;;;;5014563;28;1311;-63
2020/12/26 05:19:07;;;;;;;;;;;22.40;52.90;;;;;;5032669;28;1332;-64
2020/12/26 05:21:33;;;;;;;;;;;22.40;52.90;;;;;;5013530;28;1363;-64
2020/12/26 05:24:01;;;;;;;;;;;22.40;52.90;;;;;;5026164;28;1447;-66
2020/12/26 05:26:29;;;;;;;;;;;22.40;52.90;;;;;;5031980;28;1288;-66
2020/12/26 05:28:58;;;;;;;;;;;22.40;52.80;;;;;;5015791;28;1973;-67
2020/12/26 05:31:25;;;;;;;;;;;22.50;52.80;;;;;;5035778;28;1366;-67
2020/12/26 05:33:50;;;;;;;;;;;22.50;52.80;;;;;;5017706;28;1368;-67
2020/12/26 05:36:15;;;;;;;;;;;22.50;52.70;;;;;;5017798;28;1259;-67
2020/12/26 05:38:41;;;;;;;;;;;22.50;52.70;;;;;;5017801;28;1387;-67
2020/12/26 05:41:06;;;;;;;;;;;22.50;52.70;;;;;;5035384;28;1308;-67
2020/12/26 05:43:32;;;;;;;;;;;22.50;52.70;;;;;;5017511;28;1387;-66
2020/12/26 05:45:58;;;;;;;;;;;22.50;52.60;;;;;;5035512;28;1307;-66
2020/12/26 05:48:25;;;;;;;;;;;22.60;52.70;;;;;;5017576;28;1902;-66
2020/12/26 05:50:54;;;;;;;;;;;22.50;52.60;;;;;;5035525;28;1199;-66
2020/12/26 05:53:20;;;;;;;;;;;22.50;52.60;;;;;;5034953;28;1320;-66
2020/12/26 05:55:46;;;;;;;;;;;22.60;52.70;;;;;;5017382;28;1371;-65
2020/12/26 05:58:12;;;;;;;;;;;22.60;52.70;;;;;;5015850;28;1367;-66
2020/12/26 06:00:38;;;;;;;;;;;22.60;52.70;;;;;;5006071;28;1301;-66
2020/12/26 06:03:19;;;;;;;;;;;22.50;52.60;;;;;;5035006;28;1475;-65
2020/12/26 06:05:48;;;;;;;;;;;22.50;52.70;;;;;;5035517;28;1299;-65
2020/12/26 06:08:14;;;;;;;;;;;22.50;52.70;;;;;;5034727;28;1910;-66
2020/12/26 06:10:39;;;;;;;;;;;22.50;52.70;;;;;;5035118;28;1326;-65
2020/12/26 06:13:05;;;;;;;;;;;22.50;52.70;;;;;;5013301;28;1377;-66
2020/12/26 06:15:30;;;;;;;;;;;22.50;52.80;;;;;;5025339;28;1288;-66
2020/12/26 06:17:56;;;;;;;;;;;22.50;52.80;;;;;;5017073;28;1428;-67
2020/12/26 06:20:21;;;;;;;;;;;22.50;52.90;;;;;;5034946;28;1288;-66
2020/12/26 06:22:47;;;;;;;;;;;22.40;52.90;;;;;;5024423;28;1428;-66
2020/12/26 06:25:14;;;;;;;;;;;22.40;53.00;;;;;;5033447;28;1309;-66
2020/12/26 06:27:52;;;;;;;;;;;22.40;53.00;;;;;;5033511;28;1906;-66
2020/12/26 06:30:18;;;;;;;;;;;22.40;53.00;;;;;;5034722;28;1292;-66
2020/12/26 06:32:46;;;;;;;;;;;22.40;53.10;;;;;;5034525;28;1367;-66
2020/12/26 06:35:12;;;;;;;;;;;22.40;53.10;;;;;;5033167;28;1385;-66
2020/12/26 06:37:38;;;;;;;;;;;22.30;53.10;;;;;;5034385;28;1421;-66
2020/12/26 06:40:22;;;;;;;;;;;22.30;53.20;;;;;;5033440;28;1388;-66
2020/12/26 06:42:47;;;;;;;;;;;22.30;53.20;;;;;;5034376;28;1269;-66
2020/12/26 06:45:12;;;;;;;;;;;22.30;53.30;;;;;;5034225;28;1291;-66
2020/12/26 06:47:38;;;;;;;;;;;22.30;53.30;;;;;;5032608;28;1911;-67
2020/12/26 06:50:16;;;;;;;;;;;22.30;53.40;;;;;;5034272;28;1365;-67
2020/12/26 06:52:42;;;;;;;;;;;22.20;53.40;;;;;;5032786;28;1480;-67
2020/12/26 06:55:07;;;;;;;;;;;22.20;53.40;;;;;;5034060;28;1310;-67
2020/12/26 06:57:36;;;;;;;;;;;22.20;53.50;;;;;;5032830;28;1171;-67
2020/12/26 07:00:02;;;;;;;;;;;22.20;53.50;;;;;;5000107;28;1410;-67
2020/12/26 07:02:28;;;;;;;;;;;22.20;53.50;;;;;;5014161;28;1319;-67
2020/12/26 07:04:53;;;;;;;;;;;22.20;53.60;;;;;;5014021;28;1478;-67
2020/12/26 07:07:21;;;;;;;;;;;22.10;53.60;;;;;;5014113;28;1374;-66
2020/12/26 07:09:47;;;;;;;;;;;22.10;53.60;;;;;;5029067;28;1397;-67
2020/12/26 07:12:13;;;;;;;;;;;22.10;53.70;;;;;;5033803;28;1383;-67
2020/12/26 07:14:39;;;;;;;;;;;22.10;53.70;;;;;;5017256;28;1225;-67
2020/12/26 07:17:25;;;;;;;;;;;22.10;53.80;;;;;;5022592;28;1340;-67
2020/12/26 07:19:52;;;;;;;;;;;22.10;53.80;;;;;;5030188;28;1322;-68
2020/12/26 07:22:35;;;;;;;;;;;22.00;53.80;;;;;;5028273;28;1854;-66
2020/12/26 07:25:02;;;;;;;;;;;22.00;53.80;;;;;;5030007;28;1137;-66
2020/12/26 07:27:31;;;;;;;;;;;22.00;53.80;;;;;;5019086;28;1906;-66
2020/12/26 07:30:00;;;;;;;;;;;22.00;53.90;;;;;;5006734;28;925;-66
2020/12/26 07:32:35;;;;;;;;;;;22.00;53.90;;;;;;5018119;28;1400;-66
2020/12/26 07:35:00;;;;;;;;;;;22.00;53.90;;;;;;5013551;28;1289;-66
2020/12/26 07:37:26;;;;;;;;;;;21.90;54.50;;;;;;5012440;28;1288;-66
2020/12/26 07:39:51;;;;;;;;;;;21.90;54.00;;;;;;5032960;28;1316;-66
2020/12/26 07:42:17;;;;;;;;;;;21.90;54.00;;;;;;5029415;28;1333;-66
2020/12/26 07:44:42;;;;;;;;;;;21.90;54.00;;;;;;5023269;28;1109;-66
2020/12/26 07:47:08;;;;;;;;;;;21.90;54.10;;;;;;5015471;28;1459;-65
2020/12/26 07:49:33;;;;;;;;;;;21.90;54.10;;;;;;5015368;28;1965;-66
2020/12/26 07:52:02;;;;;;;;;;;21.80;54.10;;;;;;5014755;28;1401;-66
2020/12/26 07:54:28;;;;;;;;;;;21.80;54.10;;;;;;5015215;28;1284;-67
2020/12/26 07:56:54;;;;;;;;;;;21.80;54.10;;;;;;5019484;28;1202;-66
2020/12/26 07:59:20;;;;;;;;;;;21.80;54.20;;;;;;5026359;28;2201;-66
2020/12/26 08:01:48;;;;;;;;;;;21.80;54.20;;;;;;5031455;28;1402;-66
2020/12/26 08:04:14;;;;;;;;;;;21.80;54.30;;;;;;5030871;28;2045;-66
2020/12/26 08:06:39;;;;;;;;;;;21.80;54.30;;;;;;5002034;28;2098;-66
2020/12/26 08:09:05;;;;;;;;;;;21.80;54.30;;;;;;4993828;28;1902;-66
2020/12/26 08:11:31;;;;;;;;;;;21.80;54.30;;;;;;5028948;28;1507;-66
2020/12/26 08:14:02;;;;;;;;;;;21.70;54.30;;;;;;5023291;28;1971;-66
2020/12/26 08:16:28;;;;;;;;;;;21.80;54.30;;;;;;5032582;28;1286;-66
2020/12/26 08:18:53;;;;;;;;;;;21.80;54.30;;;;;;5032793;28;1669;-65
2020/12/26 08:21:22;;;;;;;;;;;21.80;54.20;;;;;;5032103;28;1906;-66
2020/12/26 08:23:57;;;;;;;;;;;21.90;54.20;;;;;;5030401;28;2457;-66
2020/12/26 08:26:23;;;;;;;;;;;21.90;54.10;;;;;;5036822;28;1757;-66
2020/12/26 08:28:48;;;;;;;;;;;22.00;54.00;;;;;;5031643;28;1906;-66
2020/12/26 08:31:14;;;;;;;;;;;22.00;53.90;;;;;;5031679;28;1342;-66
2020/12/26 08:33:40;;;;;;;;;;;22.10;53.80;;;;;;5030229;28;1188;-66
2020/12/26 08:36:12;;;;;;;;;;;22.10;53.70;;;;;;5031941;28;1295;-66
2020/12/26 08:38:39;;;;;;;;;;;22.20;53.60;;;;;;5031493;28;1360;-66
2020/12/26 08:41:04;;;;;;;;;;;22.20;53.50;;;;;;5031396;28;1735;-66
2020/12/26 08:43:30;;;;;;;;;;;22.20;53.40;;;;;;5029870;28;1312;-66
2020/12/26 08:45:55;;;;;;;;;;;22.30;53.30;;;;;;5032424;28;1333;-66
2020/12/26 08:48:21;;;;;;;;;;;22.30;53.20;;;;;;5032376;28;1966;-66
2020/12/26 08:50:56;;;;;;;;;;;22.30;53.20;;;;;;5031265;28;1322;-66
2020/12/26 08:53:23;;;;;;;;;;;22.30;53.10;;;;;;5031332;28;1346;-65
2020/12/26 08:55:54;;;;;;;;;;;22.30;53.70;;;;;;5032191;28;1298;-65
2020/12/26 08:58:27;;;;;;;;;;;22.30;53.10;;;;;;5030024;28;1342;-65
2020/12/26 09:00:53;;;;;;;;;;;22.30;53.00;;;;;;5012643;28;1335;-65
2020/12/26 09:03:22;;;;;;;;;;;22.30;53.10;;;;;;5011961;28;1370;-66
2020/12/26 09:05:48;;;;;;;;;;;22.30;53.00;;;;;;5025549;28;1335;-66
2020/12/26 09:08:13;;;;;;;;;;;22.30;53.10;;;;;;5036220;28;1906;-66
2020/12/26 09:10:39;;;;;;;;;;;22.30;53.10;;;;;;5036203;28;1290;-65
2020/12/26 09:13:04;;;;;;;;;;;22.30;53.10;;;;;;5032443;28;1366;-66
2020/12/26 09:15:48;;;;;;;;;;;22.30;53.10;;;;;;5014781;28;1276;-66
2020/12/26 09:18:17;;;;;;;;;;;22.30;53.10;;;;;;5035496;28;1307;-65
2020/12/26 09:20:46;;;;;;;;;;;22.30;53.20;;;;;;5034808;28;1398;-66
2020/12/26 09:23:12;;;;;;;;;;;22.30;53.20;;;;;;5035736;28;1272;-67
2020/12/26 09:25:38;;;;;;;;;;;22.30;53.30;;;;;;5035765;28;1335;-67
2020/12/26 09:28:03;;;;;;;;;;;22.30;53.30;;;;;;5035368;28;1978;-67
2020/12/26 09:30:29;;;;;;;;;;;22.20;53.30;;;;;;5035640;28;1252;-67
2020/12/26 09:32:55;;;;;;;;;;;22.20;53.30;;;;;;5017771;28;1209;-65
2020/12/26 09:35:20;;;;;;;;;;;22.20;53.40;;;;;;5017816;28;1336;-65
2020/12/26 09:37:50;;;;;;;;;;;22.20;53.40;;;;;;5017778;28;1229;-65
2020/12/26 09:40:15;;;;;;;;;;;22.20;53.40;;;;;;5035549;28;1320;-65
2020/12/26 09:42:41;;;;;;;;;;;22.20;53.50;;;;;;5035268;28;1327;-65
2020/12/26 09:45:06;;;;;;;;;;;22.20;53.50;;;;;;5035392;28;1436;-65
2020/12/26 09:47:32;;;;;;;;;;;22.20;53.50;;;;;;5035697;28;1906;-65
2020/12/26 09:49:57;;;;;;;;;;;22.10;53.50;;;;;;5035343;28;1260;-65
2020/12/26 09:52:26;;;;;;;;;;;22.20;53.50;;;;;;5035439;28;1407;-66
2020/12/26 09:54:51;;;;;;;;;;;22.20;53.50;;;;;;5035007;28;1333;-66
2020/12/26 09:57:17;;;;;;;;;;;22.20;53.50;;;;;;5034800;28;1240;-66
2020/12/26 09:59:42;;;;;;;;;;;22.20;53.50;;;;;;5021766;28;1287;-66
2020/12/26 10:02:07;;;;;;;;;;;22.20;53.40;;;;;;5020233;28;1830;-66
2020/12/26 10:04:33;;;;;;;;;;;22.30;53.40;;;;;;5033430;28;977;-65
2020/12/26 10:06:58;;;;;;;;;;;22.20;53.30;;;;;;5034549;28;1482;-65
2020/12/26 10:09:24;;;;;;;;;;;22.30;53.40;;;;;;5034439;28;1926;-65
2020/12/26 10:11:50;;;;;;;;;;;22.30;53.30;;;;;;5032861;28;1403;-65
2020/12/26 10:14:15;;;;;;;;;;;22.30;53.30;;;;;;5034079;28;1241;-65
2020/12/26 10:16:41;;;;;;;;;;;22.30;53.30;;;;;;5015126;28;2113;-66
2020/12/26 10:19:06;;;;;;;;;;;22.30;53.30;;;;;;5034665;28;1235;-66
2020/12/26 10:21:32;;;;;;;;;;;22.30;53.30;;;;;;5016674;28;1379;-66
2020/12/26 10:23:57;;;;;;;;;;;22.30;53.30;;;;;;5034753;28;1300;-66
2020/12/26 10:26:23;;;;;;;;;;;22.30;53.30;;;;;;5034354;28;1457;-66
2020/12/26 10:28:48;;;;;;;;;;;22.30;53.30;;;;;;5034655;28;1967;-66
2020/12/26 10:31:14;;;;;;;;;;;22.30;53.20;;;;;;5034632;28;1349;-66
2020/12/26 10:33:39;;;;;;;;;;;22.30;53.30;;;;;;5034496;28;1343;-65
2020/12/26 10:36:05;;;;;;;;;;;22.30;53.20;;;;;;5034332;28;1284;-65
2020/12/26 10:38:30;;;;;;;;;;;22.30;53.20;;;;;;5034586;28;933;-65
2020/12/26 10:40:56;;;;;;;;;;;22.30;53.20;;;;;;5027654;28;2064;-65
2020/12/26 10:43:21;;;;;;;;;;;22.30;53.20;;;;;;5034656;28;1685;-65
2020/12/26 10:45:47;;;;;;;;;;;22.30;53.10;;;;;;5034522;28;1451;-65
2020/12/26 10:48:12;;;;;;;;;;;22.30;53.10;;;;;;5034274;28;1890;-65
2020/12/26 10:50:38;;;;;;;;;;;22.40;53.20;;;;;;5034391;28;1314;-66
2020/12/26 10:53:03;;;;;;;;;;;22.40;53.10;;;;;;5034528;28;1371;-66
2020/12/26 10:55:28;;;;;;;;;;;22.40;53.10;;;;;;5034021;28;1345;-66
2020/12/26 10:57:54;;;;;;;;;;;22.30;53.10;;;;;;5034130;28;1357;-66
2020/12/26 11:00:20;;;;;;;;;;;22.30;53.10;;;;;;5015253;28;1646;-65
2020/12/26 11:02:45;;;;;;;;;;;22.40;53.10;;;;;;5031502;28;2196;-66
2020/12/26 11:05:11;;;;;;;;;;;22.30;53.10;;;;;;5033692;28;1389;-65
2020/12/26 11:07:36;;;;;;;;;;;22.40;53.10;;;;;;5033770;28;1942;-65
2020/12/26 11:10:02;;;;;;;;;;;22.30;53.10;;;;;;5033615;28;1351;-65
2020/12/26 11:12:27;;;;;;;;;;;22.40;53.20;;;;;;5016120;28;1332;-65
2020/12/26 11:14:53;;;;;;;;;;;22.40;53.20;;;;;;5015240;28;1323;-65
2020/12/26 11:17:18;;;;;;;;;;;22.40;53.20;;;;;;5025700;28;1338;-65
2020/12/26 11:19:44;;;;;;;;;;;22.30;53.10;;;;;;5034367;28;1333;-65
2020/12/26 11:22:09;;;;;;;;;;;22.30;53.20;;;;;;5033861;28;1359;-65
2020/12/26 11:24:35;;;;;;;;;;;22.30;53.20;;;;;;5026193;28;2018;-64
2020/12/26 11:27:00;;;;;;;;;;;22.30;53.20;;;;;;5032650;28;1299;-64
2020/12/26 11:29:26;;;;;;;;;;;22.30;53.20;;;;;;5033483;28;1934;-64
2020/12/26 11:31:52;;;;;;;;;;;22.30;53.20;;;;;;5033315;28;1234;-64
2020/12/26 11:34:17;;;;;;;;;;;22.30;53.20;;;;;;5033475;28;1322;-66
2020/12/26 11:36:43;;;;;;;;;;;22.30;53.20;;;;;;5033318;28;1371;-66
2020/12/26 11:39:10;;;;;;;;;;;22.30;53.20;;;;;;5033367;28;1126;-66
2020/12/26 11:41:35;;;;;;;;;;;22.30;53.20;;;;;;5033394;28;1401;-66
2020/12/26 11:44:01;;;;;;;;;;;22.40;53.20;;;;;;5033058;28;1375;-66
2020/12/26 11:46:26;;;;;;;;;;;22.30;53.20;;;;;;5033304;28;1383;-66
2020/12/26 11:48:52;;;;;;;;;;;22.40;53.20;;;;;;5033175;28;1898;-66
2020/12/26 11:51:17;;;;;;;;;;;22.40;53.20;;;;;;5033254;28;1381;-66
2020/12/26 11:53:43;;;;;;;;;;;22.40;53.10;;;;;;5015214;28;1374;-66
2020/12/26 11:56:09;;;;;;;;;;;22.40;53.10;;;;;;5032923;28;1324;-65
2020/12/26 11:58:35;;;;;;;;;;;22.40;53.10;;;;;;5011345;28;1360;-66
2020/12/26 12:01:00;;;;;;;;;;;22.40;53.10;;;;;;4987174;28;1295;-64
2020/12/26 12:03:26;;;;;;;;;;;22.40;53.10;;;;;;5030805;28;1340;-64
2020/12/26 12:05:51;;;;;;;;;;;22.40;53.10;;;;;;5032632;28;1323;-65
2020/12/26 12:08:17;;;;;;;;;;;22.40;53.10;;;;;;5033032;28;1965;-65
2020/12/26 12:10:42;;;;;;;;;;;22.40;53.00;;;;;;5032651;28;1031;-65
2020/12/26 12:13:08;;;;;;;;;;;22.40;53.00;;;;;;5028700;28;1383;-65
2020/12/26 12:15:33;;;;;;;;;;;22.40;53.00;;;;;;5023477;28;1383;-65
2020/12/26 12:18:02;;;;;;;;;;;22.50;53.00;;;;;;5015186;28;1680;-65
2020/12/26 12:20:28;;;;;;;;;;;22.40;53.00;;;;;;5032908;28;1300;-65
2020/12/26 12:22:53;;;;;;;;;;;22.40;53.00;;;;;;5023409;28;1390;-66
2020/12/26 12:25:19;;;;;;;;;;;22.40;53.00;;;;;;5032556;28;1312;-66
2020/12/26 12:27:44;;;;;;;;;;;22.40;53.10;;;;;;5032780;28;1906;-65
2020/12/26 12:30:10;;;;;;;;;;;22.40;53.10;;;;;;5032810;28;1322;-65
2020/12/26 12:32:35;;;;;;;;;;;22.40;53.10;;;;;;5032562;28;1330;-65
2020/12/26 12:35:01;;;;;;;;;;;22.40;53.10;;;;;;5032516;28;1276;-65
2020/12/26 12:37:26;;;;;;;;;;;22.40;53.20;;;;;;5028318;28;1975;-65
2020/12/26 12:39:52;;;;;;;;;;;22.30;53.20;;;;;;5035367;28;1103;-65
2020/12/26 12:42:17;;;;;;;;;;;22.30;53.20;;;;;;5035701;28;1413;-65
2020/12/26 12:44:43;;;;;;;;;;;22.30;53.20;;;;;;5025106;28;1264;-65
2020/12/26 12:47:08;;;;;;;;;;;22.30;53.30;;;;;;5015808;28;1248;-65
2020/12/26 12:49:33;;;;;;;;;;;22.30;53.30;;;;;;5015732;28;1902;-65
2020/12/26 12:52:02;;;;;;;;;;;22.30;53.40;;;;;;5032564;28;1295;-65
2020/12/26 12:54:28;;;;;;;;;;;22.20;53.40;;;;;;5034267;28;1076;-65
2020/12/26 12:56:53;;;;;;;;;;;22.20;53.40;;;;;;5033800;28;1292;-65
2020/12/26 12:59:19;;;;;;;;;;;22.20;53.40;;;;;;5024924;28;1301;-65
2020/12/26 13:01:47;;;;;;;;;;;22.20;53.50;;;;;;5015432;28;1350;-65
2020/12/26 13:04:13;;;;;;;;;;;22.20;53.50;;;;;;5015542;28;1270;-65
2020/12/26 13:06:38;;;;;;;;;;;22.10;53.50;;;;;;5015083;28;1346;-65
2020/12/26 13:09:04;;;;;;;;;;;22.10;53.50;;;;;;5015264;28;1905;-66
2020/12/26 13:11:29;;;;;;;;;;;22.10;53.60;;;;;;5015543;28;1337;-65
2020/12/26 13:13:54;;;;;;;;;;;22.10;53.60;;;;;;5028796;28;1111;-65
2020/12/26 13:16:21;;;;;;;;;;;22.10;53.70;;;;;;5033658;28;1332;-65
2020/12/26 13:18:46;;;;;;;;;;;22.10;53.70;;;;;;5035120;28;1277;-65
2020/12/26 13:21:18;;;;;;;;;;;22.10;53.70;;;;;;5035369;28;1359;-65
2020/12/26 13:23:44;;;;;;;;;;;22.10;53.70;;;;;;5034726;28;1036;-65
2020/12/26 13:26:09;;;;;;;;;;;22.10;53.80;;;;;;5034906;28;1257;-66
2020/12/26 13:28:36;;;;;;;;;;;22.00;53.70;;;;;;5034972;28;1902;-65
2020/12/26 13:31:01;;;;;;;;;;;22.00;53.80;;;;;;5035016;28;1161;-65
2020/12/26 13:33:27;;;;;;;;;;;22.00;53.80;;;;;;5024349;28;1328;-65
2020/12/26 13:35:52;;;;;;;;;;;22.00;53.90;;;;;;5031248;28;1360;-65
2020/12/26 13:38:20;;;;;;;;;;;22.00;53.90;;;;;;5034779;28;1316;-65
2020/12/26 13:40:45;;;;;;;;;;;21.90;53.90;;;;;;5034411;28;1274;-66
2020/12/26 13:43:11;;;;;;;;;;;21.90;54.00;;;;;;5034397;28;1261;-65
2020/12/26 13:45:36;;;;;;;;;;;21.90;54.00;;;;;;5034336;28;1228;-65
2020/12/26 13:48:02;;;;;;;;;;;21.90;54.00;;;;;;5034276;28;1902;-65
2020/12/26 13:50:27;;;;;;;;;;;21.90;54.00;;;;;;5033712;28;1455;-66
2020/12/26 13:52:53;;;;;;;;;;;21.90;54.00;;;;;;5034184;28;1326;-65
2020/12/26 13:55:18;;;;;;;;;;;21.90;54.10;;;;;;5034636;28;1648;-65
2020/12/26 13:57:44;;;;;;;;;;;21.80;54.10;;;;;;5034189;28;1304;-65
2020/12/26 14:00:09;;;;;;;;;;;21.80;54.10;;;;;;5020743;28;2124;-65
2020/12/26 14:02:35;;;;;;;;;;;21.80;54.10;;;;;;5027179;28;2160;-65
2020/12/26 14:05:00;;;;;;;;;;;21.80;54.10;;;;;;5033738;28;1245;-65
2020/12/26 14:07:26;;;;;;;;;;;21.80;54.20;;;;;;5033889;28;1299;-65
2020/12/26 14:09:51;;;;;;;;;;;21.80;54.20;;;;;;5033910;28;1967;-66
2020/12/26 14:12:17;;;;;;;;;;;21.80;54.20;;;;;;5034065;28;1370;-65
2020/12/26 14:14:42;;;;;;;;;;;21.80;54.30;;;;;;4999364;28;1452;-65
2020/12/26 14:17:08;;;;;;;;;;;21.80;54.30;;;;;;5024239;28;1265;-65
2020/12/26 14:19:33;;;;;;;;;;;21.70;54.30;;;;;;5033894;28;1311;-65
2020/12/26 14:21:59;;;;;;;;;;;21.70;54.30;;;;;;5033384;28;1295;-65
2020/12/26 14:24:24;;;;;;;;;;;21.70;54.30;;;;;;5033826;28;1339;-65